Time;durP1;ratioP1;P1;durP2;ratioP2;P2;SDS_P1;SDS_P2;PMS_P1;PMS_P2;Temp;Humidity;BMP_temperature;BMP_pressure;BME280_temperature;BME280_humidity;BME280_pressure;Samples;Min_cycle;Max_cycle;Signal;HPM_P1;HPM_P2
2022/11/11 00:01:29;;;;;;;83.45;45.92;;;;;;;6.21;75.97;101200.41;5087000;28;20024;-31
2022/11/11 00:03:55;;;;;;;87.38;47.50;;;;;;;6.20;76.65;101210.19;5086933;28;20499;-30
2022/11/11 00:06:21;;;;;;;92.63;52.50;;;;;;;6.42;76.38;101208.72;5086672;28;20048;-28
2022/11/11 00:08:47;;;;;;;97.97;52.35;;;;;;;6.67;75.32;101208.75;5068790;28;20028;-27
2022/11/11 00:11:14;;;;;;;101.03;54.13;;;;;;;6.32;76.92;101186.84;5087479;28;20040;-30
2022/11/11 00:13:40;;;;;;;130.18;67.10;;;;;;;6.02;78.72;101167.91;5087126;28;20052;-32
2022/11/11 00:16:12;;;;;;;176.70;90.82;;;;;;;5.91;81.43;101194.69;5087069;28;20032;-27
2022/11/11 00:27:11;;;;;;;85.90;45.25;;;;;;;5.33;78.78;101190.09;5083913;28;20065;-27
2022/11/11 00:29:38;;;;;;;85.88;44.55;;;;;;;5.21;79.79;101186.88;5086975;28;20733;-28
2022/11/11 00:32:23;;;;;;;72.50;42.08;;;;;;;5.23;78.90;101188.41;5086966;28;20039;-27
2022/11/11 00:37:40;;;;;;;77.10;43.90;;;;;;;5.57;76.76;101202.63;5087662;28;20070;-28
2022/11/11 00:40:06;;;;;;;91.18;44.92;;;;;;;5.28;79.07;101192.41;5090918;28;20024;-31
2022/11/11 00:42:31;;;;;;;73.00;40.30;;;;;;;5.20;78.27;101195.81;5090706;28;20036;-27
2022/11/11 00:44:57;;;;;;;77.55;40.30;;;;;;;4.83;78.10;101173.09;5090442;28;20449;-27
2022/11/11 00:52:55;;;;;;;105.45;50.63;;;;;;;5.00;77.35;101172.22;5090748;28;20107;-26
2022/11/11 00:55:21;;;;;;;92.20;47.00;;;;;;;5.09;76.64;101161.69;5090431;28;20040;-26
2022/11/11 00:57:46;;;;;;;105.47;54.05;;;;;;;5.24;75.83;101184.78;5090674;28;20028;-28
2022/11/11 01:00:12;;;;;;;113.45;56.63;;;;;;;4.78;76.14;101151.56;5090404;28;20028;-28
2022/11/11 01:02:37;;;;;;;127.07;63.47;;;;;;;5.09;75.56;101182.84;5090470;28;20028;-26
2022/11/11 01:05:03;;;;;;;192.20;94.95;;;;;;;5.29;77.03;101171.09;5090131;28;20387;-26
2022/11/11 01:07:29;;;;;;;220.77;108.80;;;;;;;5.46;78.31;101179.94;5090028;28;20048;-27
2022/11/11 01:09:54;;;;;;;209.90;109.28;;;;;;;5.62;78.69;101190.59;5089848;28;20031;-29
2022/11/11 01:12:19;;;;;;;183.00;93.60;;;;;;;5.42;77.75;101175.94;5089983;28;20062;-29
2022/11/11 01:14:45;;;;;;;173.45;88.88;;;;;;;5.10;78.66;101176.59;5089586;28;20020;-31
2022/11/11 01:17:10;;;;;;;181.05;91.80;;;;;;;5.46;77.24;101174.66;5068142;28;20028;-31
2022/11/11 01:19:36;;;;;;;198.40;97.50;;;;;;;5.42;76.63;101168.84;5069725;28;20024;-28
2022/11/11 01:22:01;;;;;;;189.05;95.70;;;;;;;5.44;77.31;101173.97;5069758;28;20085;-27
2022/11/11 01:24:27;;;;;;;190.30;92.38;;;;;;;5.23;78.52;101161.97;5069711;28;20028;-27
2022/11/11 01:26:52;;;;;;;153.70;78.03;;;;;;;4.85;78.93;101170.31;5069613;28;20024;-27
2022/11/11 01:29:18;;;;;;;162.80;83.03;;;;;;;4.85;79.06;101165.03;5069778;28;20067;-27
2022/11/11 01:31:44;;;;;;;177.15;93.05;;;;;;;4.69;79.65;101153.34;5051349;28;20035;-28
2022/11/11 01:34:09;;;;;;;194.90;101.43;;;;;;;4.87;79.34;101176.28;5069427;28;20016;-27
2022/11/11 01:36:34;;;;;;;212.30;111.50;;;;;;;4.95;78.88;101140.16;5051617;28;20546;-26
2022/11/11 01:39:00;;;;;;;193.80;110.57;;;;;;;4.98;79.36;101163.63;5069339;28;20021;-29
2022/11/11 01:41:35;;;;;;;213.45;116.10;;;;;;;5.11;79.23;101165.88;5069156;28;20472;-26
2022/11/11 01:44:40;;;;;;;235.48;118.90;;;;;;;5.15;79.48;101166.34;5069208;28;20040;-29
2022/11/11 01:47:06;;;;;;;226.82;122.05;;;;;;;5.15;79.18;101156.63;5067973;28;20072;-29
2022/11/11 01:49:58;;;;;;;249.95;135.80;;;;;;;5.17;80.11;101162.59;5051144;28;20157;-27
2022/11/11 01:52:35;;;;;;;225.80;122.35;;;;;;;4.72;81.44;101154.84;5051002;28;20414;-27
2022/11/11 01:55:03;;;;;;;237.52;127.32;;;;;;;4.98;81.74;101174.19;5069111;28;20063;-29
2022/11/11 01:57:35;;;;;;;;;;;;;;;4.93;81.51;101179.13;5069714;28;20039;-27
2022/11/11 02:00:09;;;;;;;220.63;122.78;;;;;;;5.06;80.60;101177.88;5069031;28;19912;-28
2022/11/11 02:02:42;;;;;;;230.02;123.93;;;;;;;5.13;79.73;101157.75;5069182;28;20033;-27
2022/11/11 02:07:58;;;;;;;210.77;119.13;;;;;;;5.05;81.25;101177.06;5068844;28;20055;-26
2022/11/11 02:10:26;;;;;;;198.00;115.53;;;;;;;4.77;82.52;101166.63;5068713;28;20024;-31
2022/11/11 02:15:36;;;;;;;208.93;110.07;;;;;;;4.88;81.86;101175.28;5068820;28;20044;-29
2022/11/11 02:18:02;;;;;;;205.77;113.65;;;;;;;4.83;81.93;101162.53;5068980;28;20058;-26
2022/11/11 02:20:33;;;;;;;200.75;109.63;;;;;;;4.99;80.47;101177.69;5067810;28;20041;-28
2022/11/11 02:23:17;;;;;;;182.30;103.82;;;;;;;5.09;81.00;101178.41;5050530;28;20063;-27
2022/11/11 02:25:46;;;;;;;181.25;101.82;;;;;;;5.03;79.70;101169.28;5068287;28;20490;-27
2022/11/11 02:28:12;;;;;;;164.07;91.55;;;;;;;5.07;80.38;101169.81;5068573;28;20031;-29
2022/11/11 02:30:38;;;;;;;169.93;97.32;;;;;;;4.96;79.39;101184.09;5068526;28;20559;-28
2022/11/11 02:33:03;;;;;;;145.35;82.68;;;;;;;5.03;79.16;101152.59;5050045;28;20086;-27
2022/11/11 02:35:32;;;;;;;131.68;78.63;;;;;;;4.63;80.85;101157.41;5050159;28;20033;-27
2022/11/11 02:37:57;;;;;;;;;;;;;;;4.99;80.03;101185.63;5050782;28;20035;-26
2022/11/11 02:40:37;;;;;;;140.27;75.32;;;;;;;5.09;80.16;101173.13;5067848;28;19912;-26
2022/11/11 02:43:03;;;;;;;224.48;99.35;;;;;;;4.72;80.27;101147.75;5049924;28;20028;-28
2022/11/11 02:45:28;;;;;;;221.02;92.63;;;;;;;4.75;80.22;101163.28;5068084;28;20745;-26
2022/11/11 02:47:54;;;;;;;201.38;90.30;;;;;;;4.72;80.18;101176.81;5067908;28;20044;-30
2022/11/11 02:50:19;;;;;;;190.73;89.75;;;;;;;4.75;79.02;101180.97;5067871;28;20032;-28
2022/11/11 02:52:44;;;;;;;186.15;84.43;;;;;;;4.23;80.11;101158.72;5067508;28;20536;-27
2022/11/11 02:55:10;;;;;;;188.13;87.35;;;;;;;4.10;81.96;101160.06;5067504;28;20499;-26
2022/11/11 02:57:36;;;;;;;181.40;85.38;;;;;;;4.25;83.57;101185.00;5067896;28;20024;-27
2022/11/11 03:00:03;;;;;;;160.07;82.30;;;;;;;4.59;83.49;101189.59;5067258;28;20044;-26
2022/11/11 03:02:28;;;;;;;149.60;81.05;;;;;;;4.58;83.68;101183.47;5067536;28;20040;-26
2022/11/11 03:04:55;;;;;;;148.75;81.85;;;;;;;4.67;83.73;101175.63;5049532;28;20047;-29
2022/11/11 03:07:21;;;;;;;147.05;79.85;;;;;;;4.54;84.34;101174.19;5067827;28;20055;-27
2022/11/11 03:09:47;;;;;;;154.43;83.47;;;;;;;5.10;81.67;101174.75;5067794;28;20058;-26
2022/11/11 03:12:14;;;;;;;146.95;80.97;;;;;;;4.99;81.70;101172.41;5067532;28;20039;-28
2022/11/11 03:14:39;;;;;;;152.18;81.35;;;;;;;5.09;80.51;101177.56;5067808;28;20028;-27
2022/11/11 03:19:49;;;;;;;138.00;76.07;;;;;;;4.50;80.47;101156.16;5067713;28;20036;-27
2022/11/11 03:22:14;;;;;;;136.80;76.60;;;;;;;4.78;79.61;101178.84;5067825;28;20036;-27
2022/11/11 03:27:24;;;;;;;147.18;76.10;;;;;;;4.08;80.99;101162.03;5067385;28;20055;-25
2022/11/11 03:29:49;;;;;;;138.50;74.20;;;;;;;4.12;80.34;101184.50;5067435;28;20432;-27
2022/11/11 03:32:14;;;;;;;133.95;72.55;;;;;;;3.88;81.12;101162.16;5049159;28;20040;-28
2022/11/11 03:34:40;;;;;;;135.40;74.35;;;;;;;3.93;79.92;101156.44;5066113;28;20024;-27
2022/11/11 03:39:52;;;;;;;130.00;71.13;;;;;;;3.76;80.71;101189.72;5067726;28;20040;-25
2022/11/11 03:42:18;;;;;;;141.60;73.25;;;;;;;3.69;81.04;101157.00;5067492;28;20420;-26
2022/11/11 03:44:43;;;;;;;136.45;70.47;;;;;;;4.13;79.48;101175.63;5067092;28;20051;-27
2022/11/11 03:47:08;;;;;;;139.93;73.20;;;;;;;4.22;80.52;101169.44;5049036;28;20131;-27
2022/11/11 03:49:34;;;;;;;140.70;75.30;;;;;;;4.16;80.61;101177.97;5067783;28;20031;-31
2022/11/11 03:51:59;;;;;;;144.02;75.22;;;;;;;4.13;80.37;101188.84;5067654;28;20030;-26
2022/11/11 03:54:25;;;;;;;149.73;76.47;;;;;;;4.22;79.59;101180.81;5067303;28;20058;-25
2022/11/11 03:56:50;;;;;;;139.30;75.55;;;;;;;4.29;79.47;101170.50;5067008;28;20032;-26
2022/11/11 03:59:16;;;;;;;130.40;72.40;;;;;;;4.46;78.99;101191.78;5067265;28;20036;-27
2022/11/11 04:18:08;;;;;;;116.97;65.68;;;;;;;4.48;79.35;101193.28;5071128;28;20067;-26
2022/11/11 04:23:17;;;;;;;130.90;72.15;;;;;;;4.56;78.73;101160.84;5070843;28;20420;-29
2022/11/11 04:25:48;;;;;;;140.52;74.97;;;;;;;4.55;78.78;101164.44;5071025;28;20488;-30
2022/11/11 04:30:58;;;;;;;128.07;69.22;;;;;;;4.22;79.27;101185.28;5070564;28;20039;-27
2022/11/11 04:33:23;;;;;;;127.88;65.60;;;;;;;3.79;80.85;101194.72;5069733;28;20032;-26
2022/11/11 04:35:49;;;;;;;139.88;70.75;;;;;;;3.54;82.16;101175.94;5070667;28;20496;-30
2022/11/11 04:41:07;;;;;;;255.38;98.80;;;;;;;3.69;82.12;101189.47;5070755;28;20086;-26
2022/11/11 04:45:26;;;;;;;254.23;106.15;;;;;;;3.72;81.80;101191.84;5070710;28;20421;-28
2022/11/11 04:46:18;;;;;;;220.10;95.50;;;;;;;3.59;81.90;101178.13;5070456;28;20116;-26
2022/11/11 04:48:44;;;;;;;166.82;78.88;;;;;;;3.70;81.88;101183.25;5070793;28;20112;-26
2022/11/11 04:51:09;;;;;;;153.20;76.72;;;;;;;3.30;83.50;101178.25;5070587;28;20020;-26
2022/11/11 04:53:34;;;;;;;128.65;65.22;;;;;;;3.28;82.91;101164.38;5070369;28;20110;-30
2022/11/11 04:58:45;;;;;;;159.48;82.68;;;;;;;3.46;81.97;101175.84;5070387;28;20046;-26
2022/11/11 05:03:14;;;;;;;133.15;69.38;;;;;;;3.32;82.67;101203.50;5070009;28;20039;-27
2022/11/11 05:03:56;;;;;;;117.90;64.28;;;;;;;3.31;80.86;101207.13;5069954;28;20039;-28
2022/11/11 05:09:05;;;;;;;120.47;64.10;;;;;;;2.77;80.63;101185.72;5069961;28;20066;-26
2022/11/11 05:11:33;;;;;;;123.35;66.55;;;;;;;2.85;81.13;101200.81;5051777;28;20432;-28
2022/11/11 05:22:29;;;;;;;144.38;73.53;;;;;;;3.05;81.49;101217.44;5070322;28;20098;-27
2022/11/11 05:27:39;;;;;;;124.95;67.07;;;;;;;3.50;79.48;101211.50;5069869;28;20480;-26
2022/11/11 05:30:07;;;;;;;138.88;67.88;;;;;;;3.41;80.21;101226.38;5069814;28;20492;-26
2022/11/11 05:32:33;;;;;;;128.75;71.75;;;;;;;3.46;80.03;101204.84;5052006;28;20451;-26
2022/11/11 05:34:58;;;;;;;133.50;71.50;;;;;;;3.31;80.91;101208.91;5069366;28;20558;-27
2022/11/11 05:37:24;;;;;;;135.93;71.82;;;;;;;3.41;81.54;101214.97;5069629;28;20078;-27
2022/11/11 05:39:49;;;;;;;148.52;71.78;;;;;;;3.55;81.69;101240.91;5069559;28;20020;-26
2022/11/11 05:42:15;;;;;;;153.10;76.50;;;;;;;3.48;81.96;101229.28;5069703;28;20032;-27
2022/11/11 05:44:40;;;;;;;161.30;77.32;;;;;;;3.69;82.36;101257.25;5069697;28;20047;-26
2022/11/11 05:47:06;;;;;;;153.52;78.45;;;;;;;3.88;81.52;101251.88;5050943;28;20040;-27
2022/11/11 05:49:32;;;;;;;169.45;81.13;;;;;;;3.88;81.83;101243.94;5069540;28;20032;-26
2022/11/11 05:51:58;;;;;;;166.70;81.80;;;;;;;4.00;82.17;101256.00;5069387;28;20115;-26
2022/11/11 05:54:23;;;;;;;147.98;76.40;;;;;;;3.80;82.57;101249.13;5051373;28;20035;-28
2022/11/11 05:56:49;;;;;;;150.07;78.28;;;;;;;3.75;82.92;101248.75;5068810;28;20059;-29
2022/11/11 05:59:14;;;;;;;146.88;76.55;;;;;;;3.90;82.66;101260.47;5051199;28;20024;-27
2022/11/11 06:01:40;;;;;;;148.35;78.93;;;;;;;4.64;80.44;101261.31;5069509;28;20533;-29
2022/11/11 06:04:06;;;;;;;157.15;79.50;;;;;;;4.48;80.79;101266.44;5069297;28;20121;-27
2022/11/11 06:06:33;;;;;;;143.50;77.80;;;;;;;4.45;81.60;101267.53;5050828;28;20105;-27
2022/11/11 06:08:59;;;;;;;145.95;81.75;;;;;;;4.45;81.70;101256.16;5068847;28;20403;-26
2022/11/11 06:11:24;;;;;;;155.10;80.68;;;;;;;4.54;81.53;101274.59;5069036;28;20037;-26
2022/11/11 06:13:50;;;;;;;147.77;80.35;;;;;;;4.62;82.16;101272.03;5050802;28;20097;-26
2022/11/11 06:16:16;;;;;;;154.40;80.85;;;;;;;4.68;82.00;101259.19;5068938;28;20029;-26
2022/11/11 06:18:42;;;;;;;158.07;82.45;;;;;;;4.85;81.64;101270.75;5050564;28;20032;-30
2022/11/11 06:21:07;;;;;;;186.10;92.88;;;;;;;5.28;81.03;101271.75;5068572;28;20545;-26
2022/11/11 06:23:33;;;;;;;165.75;90.10;;;;;;;5.27;80.99;101275.38;5050636;28;20197;-29
2022/11/11 06:26:14;;;;;;;188.48;92.55;;;;;;;5.28;81.71;101288.44;5068781;28;20055;-27
2022/11/11 06:28:39;;;;;;;199.60;104.65;;;;;;;5.48;81.34;101280.31;5068593;28;20549;-28
2022/11/11 06:31:06;;;;;;;200.38;104.55;;;;;;;5.52;81.46;101285.16;5068692;28;20111;-26
2022/11/11 06:33:33;;;;;;;205.75;105.35;;;;;;;5.98;80.00;101293.69;5050284;28;20024;-26
2022/11/11 06:35:58;;;;;;;208.88;106.03;;;;;;;6.09;80.04;101281.16;5067727;28;20036;-26
2022/11/11 06:38:24;;;;;;;204.80;108.97;;;;;;;6.20;78.83;101273.75;5068401;28;20097;-31
2022/11/11 06:40:49;;;;;;;225.27;116.07;;;;;;;6.43;78.96;101289.88;5050052;28;20033;-27
2022/11/11 06:43:15;;;;;;;240.45;116.40;;;;;;;6.41;79.17;101281.25;5050329;28;20029;-26
2022/11/11 06:45:40;;;;;;;208.50;105.30;;;;;;;6.66;78.80;101299.91;5068349;28;20040;-27
2022/11/11 06:48:06;;;;;;;196.25;103.35;;;;;;;6.83;78.42;101288.31;5068306;28;20032;-27
2022/11/11 06:50:32;;;;;;;206.00;106.35;;;;;;;6.72;79.45;101293.94;5068243;28;20056;-26
2022/11/11 06:53:09;;;;;;;185.15;95.80;;;;;;;7.14;79.78;101292.13;5068081;28;20032;-28
2022/11/11 06:55:35;;;;;;;169.57;90.95;;;;;;;7.33;79.70;101294.44;5067976;28;20108;-27
2022/11/11 06:58:12;;;;;;;148.00;78.68;;;;;;;7.37;79.18;101276.34;5068018;28;20131;-30
2022/11/11 07:00:38;;;;;;;136.18;77.65;;;;;;;7.35;79.36;101267.72;5067752;28;20039;-27
2022/11/11 07:03:05;;;;;;;144.05;80.45;;;;;;;7.61;79.14;101278.97;5067396;28;20071;-26
2022/11/11 07:05:31;;;;;;;144.20;77.05;;;;;;;7.62;78.70;101277.97;5067822;28;20064;-25
2022/11/11 07:08:00;;;;;;;130.85;75.50;;;;;;;7.85;79.28;101301.16;5049314;28;20416;-28
2022/11/11 07:10:26;;;;;;;138.88;81.28;;;;;;;8.12;79.21;101299.06;5049725;28;20028;-27
2022/11/11 07:12:51;;;;;;;139.25;76.18;;;;;;;8.28;79.34;101291.03;5067250;28;20024;-29
2022/11/11 07:15:17;;;;;;;143.80;79.72;;;;;;;8.48;78.76;101309.22;5067283;28;20378;-29
2022/11/11 07:17:42;;;;;;;135.90;77.10;;;;;;;8.64;77.94;101306.47;5067790;28;20032;-27
2022/11/11 07:20:08;;;;;;;127.75;74.63;;;;;;;8.48;77.83;101290.59;5067667;28;20039;-27
2022/11/11 07:22:37;;;;;;;125.50;74.18;;;;;;;8.57;77.95;101281.59;5067473;28;20048;-27
2022/11/11 07:25:03;;;;;;;130.32;73.57;;;;;;;8.89;77.08;101282.34;5067467;28;20039;-28
2022/11/11 07:27:28;;;;;;;132.10;75.30;;;;;;;9.06;76.75;101289.22;5067550;28;20037;-28
2022/11/11 07:29:54;;;;;;;125.47;75.10;;;;;;;9.39;76.02;101304.91;5049117;28;20025;-27
2022/11/11 07:32:19;;;;;;;132.23;75.07;;;;;;;9.39;76.53;101300.41;5067826;28;20036;-27
2022/11/11 07:34:44;;;;;;;123.60;73.03;;;;;;;9.59;75.90;101289.25;5065931;28;20032;-26
2022/11/11 07:37:10;;;;;;;127.75;68.57;;;;;;;9.42;76.42;101293.91;5067625;28;20036;-26
2022/11/11 07:39:35;;;;;;;104.10;64.10;;;;;;;9.68;74.93;101288.13;5067343;28;20043;-29
2022/11/11 07:42:01;;;;;;;115.15;64.43;;;;;;;9.72;75.13;101300.06;5067640;28;20081;-27
2022/11/11 07:44:26;;;;;;;105.93;61.05;;;;;;;10.03;74.54;101305.25;5067093;28;20036;-27
2022/11/11 07:46:52;;;;;;;97.75;59.17;;;;;;;9.85;74.76;101288.81;5048880;28;20432;-26
2022/11/11 07:49:17;;;;;;;93.45;56.60;;;;;;;10.10;74.32;101297.31;5067151;28;20033;-30
2022/11/11 07:51:43;;;;;;;97.75;56.63;;;;;;;10.26;73.70;101302.44;5067370;28;20029;-26
2022/11/11 07:54:08;;;;;;;90.57;57.33;;;;;;;10.03;74.00;101297.25;5049270;28;20031;-31
2022/11/11 07:56:34;;;;;;;93.53;58.83;;;;;;;10.22;73.94;101285.19;5067183;28;20036;-31
2022/11/11 07:58:59;;;;;;;98.40;58.30;;;;;;;10.53;74.00;101296.63;5066710;28;20033;-27
2022/11/11 08:01:25;;;;;;;95.63;57.05;;;;;;;10.85;73.28;101306.84;5067098;28;20036;-26
2022/11/11 08:03:50;;;;;;;90.57;55.95;;;;;;;11.01;71.51;101288.91;5067233;28;20842;-28
2022/11/11 08:06:17;;;;;;;84.88;51.42;;;;;;;11.26;70.23;101319.53;5066920;28;20194;-27
2022/11/11 08:08:43;;;;;;;78.80;48.75;;;;;;;11.37;70.28;101312.00;5067319;28;20128;-27
2022/11/11 08:11:08;;;;;;;80.45;48.75;;;;;;;11.19;71.45;101302.63;5048723;28;20036;-27
2022/11/11 08:13:39;;;;;;;78.43;49.88;;;;;;;11.39;71.16;101296.63;5048796;28;20037;-27
2022/11/11 08:16:13;;;;;;;79.53;49.22;;;;;;;11.55;69.79;101323.03;5067281;28;20048;-30
2022/11/11 08:18:40;;;;;;;81.50;49.10;;;;;;;11.73;70.66;101311.00;5048859;28;20064;-28
2022/11/11 08:21:06;;;;;;;77.35;47.53;;;;;;;12.11;68.61;101300.78;5066778;28;20028;-30
2022/11/11 08:23:31;;;;;;;71.75;44.85;;;;;;;12.20;69.15;101306.81;5066835;28;20043;-29
2022/11/11 08:26:02;;;;;;;75.90;45.97;;;;;;;12.46;67.63;101314.09;5066799;28;20028;-29
2022/11/11 08:28:29;;;;;;;69.30;43.78;;;;;;;12.82;67.73;101329.84;5066789;28;20025;-27
2022/11/11 08:30:58;;;;;;;68.60;43.80;;;;;;;12.72;66.33;101313.34;5048628;28;20029;-30
2022/11/11 08:33:24;;;;;;;66.88;43.97;;;;;;;12.69;67.71;101305.72;5066699;28;20025;-28
2022/11/11 08:35:53;;;;;;;69.53;43.88;;;;;;;12.76;67.32;101314.59;5048517;28;20048;-30
2022/11/11 08:38:19;;;;;;;72.72;45.15;;;;;;;12.98;66.22;101303.72;5066559;28;20112;-30
2022/11/11 08:40:44;;;;;;;74.25;47.80;;;;;;;12.90;67.64;101307.41;5066257;28;20043;-29
2022/11/11 08:43:10;;;;;;;73.80;47.33;;;;;;;13.07;66.96;101315.88;5066966;28;20028;-30
2022/11/11 08:45:35;;;;;;;71.05;44.75;;;;;;;13.01;66.74;101317.50;5066504;28;20028;-27
2022/11/11 08:48:01;;;;;;;75.38;44.33;;;;;;;12.97;67.10;101316.25;5066616;28;20040;-30
2022/11/11 08:50:26;;;;;;;71.35;45.05;;;;;;;13.08;66.84;101322.88;5048230;28;20459;-31
2022/11/11 08:52:52;;;;;;;70.80;45.63;;;;;;;13.13;66.71;101320.41;5066385;28;20064;-29
2022/11/11 08:55:18;;;;;;;68.47;43.08;;;;;;;13.18;66.81;101303.75;5065906;28;20056;-27
2022/11/11 08:57:43;;;;;;;70.85;43.50;;;;;;;13.29;66.54;101319.22;5066977;28;20035;-27
2022/11/11 09:00:10;;;;;;;66.18;42.72;;;;;;;13.31;66.04;101308.31;5069518;28;20044;-27
2022/11/11 09:02:36;;;;;;;69.43;42.28;;;;;;;13.47;65.70;101318.59;5070344;28;20036;-29
2022/11/11 09:05:02;;;;;;;70.65;44.78;;;;;;;13.31;65.81;101298.41;5069913;28;20036;-28
2022/11/11 09:07:27;;;;;;;101.28;62.30;;;;;;;13.07;67.56;101327.41;5070128;28;20244;-27
2022/11/11 09:09:53;;;;;;;121.50;74.32;;;;;;;13.05;67.66;101316.06;5070117;28;20036;-28
2022/11/11 09:12:18;;;;;;;95.22;58.40;;;;;;;13.26;67.47;101312.38;5052184;28;20109;-27
2022/11/11 09:14:44;;;;;;;67.95;44.67;;;;;;;13.32;66.67;101324.19;5069688;28;20091;-27
2022/11/11 09:17:09;;;;;;;77.32;44.67;;;;;;;13.45;66.43;101315.31;5069763;28;20032;-28
2022/11/11 09:19:35;;;;;;;67.63;42.92;;;;;;;13.53;66.36;101301.69;5069881;28;20017;-29
2022/11/11 09:22:00;;;;;;;65.45;40.83;;;;;;;13.39;66.28;101294.69;5069706;28;20170;-29
2022/11/11 09:24:25;;;;;;;60.17;38.95;;;;;;;13.82;65.08;101305.75;5051379;28;20381;-29
2022/11/11 09:26:51;;;;;;;59.72;38.42;;;;;;;13.70;66.13;101303.94;5069763;28;20408;-30
2022/11/11 09:29:17;;;;;;;58.67;37.88;;;;;;;13.51;66.21;101287.69;5069671;28;20024;-29
2022/11/11 09:31:45;;;;;;;58.05;36.80;;;;;;;13.79;65.81;101289.25;5069866;28;20036;-27
2022/11/11 09:34:11;;;;;;;56.97;36.65;;;;;;;13.81;65.97;101279.16;5069557;28;20063;-27
2022/11/11 09:36:36;;;;;;;53.08;35.15;;;;;;;14.11;65.37;101300.09;5069527;28;20041;-28
2022/11/11 09:39:02;;;;;;;58.15;34.40;;;;;;;14.11;65.47;101305.47;5050775;28;20392;-27
2022/11/11 09:41:46;;;;;;;56.17;34.63;;;;;;;14.32;64.22;101305.16;5051671;28;20687;-27
2022/11/11 09:44:29;;;;;;;59.13;34.60;;;;;;;14.27;64.22;101283.53;5069433;28;20070;-28
2022/11/11 09:47:10;;;;;;;58.90;36.22;;;;;;;14.59;64.15;101308.59;5068134;28;20105;-26
2022/11/11 09:49:41;;;;;;;55.55;34.63;;;;;;;14.37;63.64;101315.28;5069011;28;20027;-27
2022/11/11 09:52:29;;;;;;;55.95;35.70;;;;;;;14.41;64.29;101303.09;5051267;28;20032;-29
2022/11/11 09:55:02;;;;;;;53.15;33.85;;;;;;;14.43;64.53;101299.13;5068811;28;20067;-27
2022/11/11 09:57:36;;;;;;;51.17;33.13;;;;;;;14.32;64.83;101281.00;5069093;28;20112;-26
2022/11/11 10:00:06;;;;;;;53.15;33.72;;;;;;;14.63;64.04;101292.88;5050788;28;20028;-28
2022/11/11 10:02:47;;;;;;;57.22;33.75;;;;;;;14.71;63.89;101294.47;5068406;28;20036;-27
2022/11/11 10:05:28;;;;;;;50.95;32.92;;;;;;;14.75;63.49;101301.06;5069071;28;20107;-30
2022/11/11 10:08:15;;;;;;;52.08;32.85;;;;;;;14.81;64.16;101297.50;5068654;28;20056;-27
2022/11/11 10:10:46;;;;;;;53.83;33.88;;;;;;;14.97;63.83;101296.16;5067498;28;20475;-27
2022/11/11 10:13:18;;;;;;;51.20;32.92;;;;;;;14.88;63.96;101284.06;5068655;28;20028;-29
2022/11/11 10:16:02;;;;;;;48.80;31.42;;;;;;;15.27;62.43;101285.59;5050490;28;20119;-28
2022/11/11 10:18:46;;;;;;;54.05;32.67;;;;;;;15.02;63.59;101288.28;5068678;28;20032;-28
2022/11/11 10:21:21;;;;;;;48.42;32.40;;;;;;;14.90;63.84;101287.34;5068559;28;20583;-28
2022/11/11 10:23:48;;;;;;;52.13;31.85;;;;;;;14.95;63.61;101266.81;5068476;28;20029;-29
2022/11/11 10:26:38;;;;;;;52.00;33.33;;;;;;;15.23;62.53;101284.38;5050580;28;20055;-28
2022/11/11 10:29:12;;;;;;;45.75;30.48;;;;;;;15.21;62.37;101283.78;5068221;28;20111;-27
2022/11/11 10:31:40;;;;;;;47.33;30.40;;;;;;;15.01;63.34;101279.38;5068727;28;20043;-32
2022/11/11 10:34:10;;;;;;;47.72;30.10;;;;;;;15.03;63.46;101281.84;5050424;28;20032;-29
2022/11/11 10:36:44;;;;;;;50.33;30.98;;;;;;;14.97;63.12;101277.34;5068333;28;20133;-29
2022/11/11 10:39:17;;;;;;;45.25;31.20;;;;;;;15.11;63.35;101284.28;5068205;28;20037;-30
2022/11/11 10:41:47;;;;;;;46.80;30.55;;;;;;;14.82;65.38;101275.00;5068053;28;20559;-30
2022/11/11 10:44:32;;;;;;;48.38;30.63;;;;;;;14.93;64.39;101271.59;5068226;28;20037;-28
2022/11/11 10:47:08;;;;;;;50.97;32.75;;;;;;;14.90;66.09;101273.91;5049651;28;20678;-28
2022/11/11 10:49:41;;;;;;;55.65;32.85;;;;;;;14.95;65.11;101266.00;5068204;28;20108;-29
2022/11/11 10:52:15;;;;;;;48.42;31.70;;;;;;;14.85;66.08;101271.84;5049862;28;20063;-29
2022/11/11 10:54:49;;;;;;;49.50;32.30;;;;;;;14.95;65.44;101290.19;5067756;28;20036;-27
2022/11/11 10:57:35;;;;;;;62.22;33.97;;;;;;;14.65;67.08;101256.72;5068120;28;20029;-26
2022/11/11 11:00:08;;;;;;;51.08;32.40;;;;;;;14.62;66.88;101267.88;5049700;28;20040;-29
2022/11/11 11:02:45;;;;;;;49.13;31.88;;;;;;;14.71;65.90;101273.00;5067734;28;20037;-29
2022/11/11 11:05:19;;;;;;;49.03;27.40;;;;;;;14.52;65.54;101261.31;5049715;28;20504;-32
2022/11/11 11:07:49;;;;;;;55.22;31.58;;;;;;;14.50;67.34;101269.56;5067586;28;20127;-29
2022/11/11 11:10:29;;;;;;;48.60;29.58;;;;;;;14.19;68.44;101249.72;5067698;28;20032;-29
2022/11/11 11:13:08;;;;;;;54.15;34.35;;;;;;;14.26;70.17;101271.13;5049355;28;20089;-27
2022/11/11 11:15:40;;;;;;;64.57;38.63;;;;;;;14.05;71.59;101258.84;5049694;28;20054;-31
2022/11/11 11:18:12;;;;;;;66.03;39.85;;;;;;;13.85;73.13;101254.41;5067744;28;20040;-30
2022/11/11 11:20:38;;;;;;;68.35;43.10;;;;;;;13.63;75.70;101258.38;5067430;28;20037;-28
2022/11/11 11:23:03;;;;;;;96.47;54.95;;;;;;;13.64;76.40;101255.47;5066761;28;20040;-30
2022/11/11 11:25:34;;;;;;;96.82;57.58;;;;;;;13.65;77.80;101259.81;5067491;28;20039;-27
2022/11/11 11:28:11;;;;;;;96.80;59.45;;;;;;;13.73;78.57;101258.78;5049601;28;20033;-27
2022/11/11 11:30:37;;;;;;;94.25;55.88;;;;;;;13.56;78.49;101244.97;5067079;28;20090;-28
2022/11/11 11:33:05;;;;;;;90.18;54.47;;;;;;;13.53;79.79;101258.81;5048876;28;20029;-28
2022/11/11 11:35:30;;;;;;;84.15;52.03;;;;;;;13.66;79.46;101261.44;5067280;28;20495;-28
2022/11/11 11:37:56;;;;;;;95.90;54.83;;;;;;;13.73;79.59;101261.44;5049055;28;20040;-28
2022/11/11 11:40:21;;;;;;;111.22;58.80;;;;;;;13.79;79.79;101265.97;5049458;28;20127;-29
2022/11/11 11:42:47;;;;;;;104.95;59.83;;;;;;;13.55;81.88;101259.44;5067256;28;20029;-28
2022/11/11 11:45:31;;;;;;;98.22;55.65;;;;;;;13.55;81.67;101264.78;5049248;28;20496;-27
2022/11/11 11:48:18;;;;;;;88.50;50.25;;;;;;;13.63;81.10;101267.25;5067185;28;20040;-29
2022/11/11 11:51:10;;;;;;;81.00;46.50;;;;;;;13.64;80.65;101263.50;5048785;28;20067;-27
2022/11/11 11:54:04;;;;;;;74.50;44.35;;;;;;;13.30;82.19;101250.38;5067284;28;20078;-27
2022/11/11 11:56:37;;;;;;;62.28;37.88;;;;;;;13.40;81.45;101248.94;5048857;28;20048;-29
2022/11/11 11:59:16;;;;;;;59.90;39.05;;;;;;;13.40;82.25;101264.19;5065838;28;20031;-29
2022/11/11 12:02:14;;;;;;;62.83;37.33;;;;;;;13.47;82.03;101273.03;5048791;28;20059;-30
2022/11/11 12:04:40;;;;;;;69.90;45.78;;;;;;;13.46;82.81;101276.75;5066808;28;20405;-28
2022/11/11 12:07:33;;;;;;;67.85;43.85;;;;;;;13.40;84.42;101277.56;5065745;28;20045;-29
2022/11/11 12:10:31;;;;;;;60.15;42.55;;;;;;;13.40;84.45;101266.84;5066527;28;20104;-31
2022/11/11 12:13:21;;;;;;;57.60;37.78;;;;;;;13.46;84.56;101280.28;5036457;28;20131;-30
2022/11/11 12:16:05;;;;;;;58.55;37.90;;;;;;;13.33;84.97;101258.00;5066508;28;20033;-29
2022/11/11 12:18:58;;;;;;;59.67;38.85;;;;;;;13.39;86.78;101275.94;5066809;28;20039;-30
2022/11/11 12:21:33;;;;;;;55.60;39.15;;;;;;;13.37;86.39;101276.13;5066575;28;20490;-28
2022/11/11 12:24:01;;;;;;;60.83;42.17;;;;;;;13.33;86.70;101272.22;5048562;28;20035;-27
2022/11/11 12:26:36;;;;;;;54.60;34.15;;;;;;;13.33;85.64;101260.69;5048616;28;20050;-27
2022/11/11 12:29:11;;;;;;;60.97;40.65;;;;;;;13.48;86.21;101280.03;5048087;28;20039;-29
2022/11/11 12:32:14;;;;;;;65.10;44.13;;;;;;;13.43;86.44;101282.53;5066504;28;20020;-28